sensor_id;sensor_type;location;lat;lon;timestamp;P1;durP1;ratioP1;P2;durP2;ratioP2
68225;SDS011;55045;49.410;11.030;2023-05-15T00:01:35;12.95;;;8.40;;
68225;SDS011;55045;49.410;11.030;2023-05-15T00:04:38;10.27;;;7.93;;
68225;SDS011;55045;49.410;11.030;2023-05-15T00:07:43;9.57;;;7.35;;
68225;SDS011;55045;49.410;11.030;2023-05-15T00:10:46;10.25;;;7.70;;
68225;SDS011;55045;49.410;11.030;2023-05-15T00:14:09;11.70;;;7.95;;
68225;SDS011;55045;49.410;11.030;2023-05-15T00:17:12;11.68;;;8.20;;
68225;SDS011;55045;49.410;11.030;2023-05-15T00:20:16;11.10;;;7.57;;
68225;SDS011;55045;49.410;11.030;2023-05-15T00:23:20;10.25;;;7.68;;
68225;SDS011;55045;49.410;11.030;2023-05-15T00:26:23;11.60;;;8.65;;
68225;SDS011;55045;49.410;11.030;2023-05-15T00:29:27;11.52;;;8.38;;
68225;SDS011;55045;49.410;11.030;2023-05-15T00:32:30;14.07;;;8.82;;
68225;SDS011;55045;49.410;11.030;2023-05-15T00:35:33;11.50;;;8.00;;
68225;SDS011;55045;49.410;11.030;2023-05-15T00:38:38;15.13;;;8.43;;
68225;SDS011;55045;49.410;11.030;2023-05-15T00:41:41;10.60;;;8.48;;
68225;SDS011;55045;49.410;11.030;2023-05-15T00:44:46;12.45;;;8.98;;
68225;SDS011;55045;49.410;11.030;2023-05-15T00:47:50;15.63;;;8.65;;
68225;SDS011;55045;49.410;11.030;2023-05-15T00:50:56;11.82;;;8.80;;
68225;SDS011;55045;49.410;11.030;2023-05-15T00:54:02;15.00;;;8.93;;
68225;SDS011;55045;49.410;11.030;2023-05-15T00:57:06;13.38;;;8.70;;
68225;SDS011;55045;49.410;11.030;2023-05-15T01:00:10;13.27;;;9.70;;
68225;SDS011;55045;49.410;11.030;2023-05-15T01:03:17;11.03;;;7.67;;
68225;SDS011;55045;49.410;11.030;2023-05-15T01:06:21;12.07;;;9.07;;
68225;SDS011;55045;49.410;11.030;2023-05-15T01:09:26;11.57;;;8.13;;
68225;SDS011;55045;49.410;11.030;2023-05-15T01:12:31;11.45;;;8.07;;
68225;SDS011;55045;49.410;11.030;2023-05-15T01:15:37;12.57;;;8.18;;
68225;SDS011;55045;49.410;11.030;2023-05-15T01:18:40;12.27;;;9.27;;
68225;SDS011;55045;49.410;11.030;2023-05-15T01:28:50;13.93;;;9.10;;
68225;SDS011;55045;49.410;11.030;2023-05-15T01:32:01;11.00;;;7.55;;
68225;SDS011;55045;49.410;11.030;2023-05-15T01:35:08;10.82;;;7.00;;
68225;SDS011;55045;49.410;11.030;2023-05-15T01:38:18;15.02;;;8.45;;
68225;SDS011;55045;49.410;11.030;2023-05-15T01:41:27;11.13;;;8.05;;
68225;SDS011;55045;49.410;11.030;2023-05-15T01:44:34;10.32;;;8.10;;
68225;SDS011;55045;49.410;11.030;2023-05-15T01:47:39;9.75;;;7.82;;
68225;SDS011;55045;49.410;11.030;2023-05-15T01:50:46;10.73;;;8.02;;
68225;SDS011;55045;49.410;11.030;2023-05-15T01:53:54;12.18;;;8.50;;
68225;SDS011;55045;49.410;11.030;2023-05-15T01:56:59;12.02;;;8.70;;
68225;SDS011;55045;49.410;11.030;2023-05-15T02:00:06;10.43;;;8.32;;
68225;SDS011;55045;49.410;11.030;2023-05-15T02:03:16;16.40;;;9.63;;
68225;SDS011;55045;49.410;11.030;2023-05-15T02:06:20;16.00;;;10.45;;
68225;SDS011;55045;49.410;11.030;2023-05-15T02:09:27;11.38;;;8.50;;
68225;SDS011;55045;49.410;11.030;2023-05-15T02:12:30;12.40;;;9.05;;
68225;SDS011;55045;49.410;11.030;2023-05-15T02:15:37;12.35;;;8.75;;
68225;SDS011;55045;49.410;11.030;2023-05-15T02:18:41;11.02;;;8.25;;
68225;SDS011;55045;49.410;11.030;2023-05-15T02:21:44;11.85;;;8.35;;
68225;SDS011;55045;49.410;11.030;2023-05-15T02:24:47;12.13;;;8.38;;
68225;SDS011;55045;49.410;11.030;2023-05-15T02:27:53;12.20;;;8.85;;
68225;SDS011;55045;49.410;11.030;2023-05-15T02:31:02;16.42;;;8.88;;
68225;SDS011;55045;49.410;11.030;2023-05-15T02:34:13;12.93;;;8.65;;
68225;SDS011;55045;49.410;11.030;2023-05-15T02:37:21;12.32;;;8.30;;
68225;SDS011;55045;49.410;11.030;2023-05-15T02:40:29;12.95;;;8.88;;
68225;SDS011;55045;49.410;11.030;2023-05-15T02:43:34;14.10;;;8.45;;
68225;SDS011;55045;49.410;11.030;2023-05-15T02:46:39;12.07;;;8.68;;
68225;SDS011;55045;49.410;11.030;2023-05-15T02:49:43;15.05;;;9.05;;
68225;SDS011;55045;49.410;11.030;2023-05-15T02:52:47;13.10;;;9.07;;
68225;SDS011;55045;49.410;11.030;2023-05-15T02:55:50;14.82;;;9.73;;
68225;SDS011;55045;49.410;11.030;2023-05-15T02:58:54;14.60;;;10.70;;
68225;SDS011;55045;49.410;11.030;2023-05-15T03:01:59;13.10;;;9.95;;
68225;SDS011;55045;49.410;11.030;2023-05-15T03:05:04;16.95;;;10.60;;
68225;SDS011;55045;49.410;11.030;2023-05-15T03:08:08;14.50;;;9.95;;
68225;SDS011;55045;49.410;11.030;2023-05-15T03:11:11;14.85;;;11.27;;
68225;SDS011;55045;49.410;11.030;2023-05-15T03:14:15;16.15;;;11.45;;
68225;SDS011;55045;49.410;11.030;2023-05-15T03:17:19;13.38;;;10.75;;
68225;SDS011;55045;49.410;11.030;2023-05-15T03:20:23;15.07;;;11.25;;
68225;SDS011;55045;49.410;11.030;2023-05-15T03:23:27;14.63;;;11.52;;
68225;SDS011;55045;49.410;11.030;2023-05-15T03:26:31;14.20;;;10.90;;
68225;SDS011;55045;49.410;11.030;2023-05-15T03:29:35;15.05;;;11.60;;
68225;SDS011;55045;49.410;11.030;2023-05-15T03:34:36;15.35;;;12.10;;
68225;SDS011;55045;49.410;11.030;2023-05-15T03:37:42;14.32;;;11.18;;
68225;SDS011;55045;49.410;11.030;2023-05-15T03:40:45;16.77;;;10.98;;
68225;SDS011;55045;49.410;11.030;2023-05-15T03:43:51;13.18;;;9.85;;
68225;SDS011;55045;49.410;11.030;2023-05-15T03:46:54;16.40;;;10.77;;
68225;SDS011;55045;49.410;11.030;2023-05-15T03:49:59;17.52;;;12.95;;
68225;SDS011;55045;49.410;11.030;2023-05-15T03:53:06;15.75;;;12.25;;
68225;SDS011;55045;49.410;11.030;2023-05-15T03:56:09;14.15;;;10.82;;
68225;SDS011;55045;49.410;11.030;2023-05-15T03:59:13;14.68;;;11.20;;
68225;SDS011;55045;49.410;11.030;2023-05-15T04:02:16;12.07;;;8.32;;
68225;SDS011;55045;49.410;11.030;2023-05-15T04:05:21;12.48;;;9.55;;
68225;SDS011;55045;49.410;11.030;2023-05-15T04:08:24;13.13;;;9.95;;
68225;SDS011;55045;49.410;11.030;2023-05-15T04:11:27;10.88;;;8.05;;
68225;SDS011;55045;49.410;11.030;2023-05-15T04:14:31;11.45;;;8.50;;
68225;SDS011;55045;49.410;11.030;2023-05-15T04:17:34;13.35;;;8.68;;
68225;SDS011;55045;49.410;11.030;2023-05-15T04:20:39;14.73;;;9.63;;
68225;SDS011;55045;49.410;11.030;2023-05-15T04:23:42;17.52;;;10.48;;
68225;SDS011;55045;49.410;11.030;2023-05-15T04:26:46;14.48;;;9.70;;
68225;SDS011;55045;49.410;11.030;2023-05-15T04:29:49;13.90;;;9.15;;
68225;SDS011;55045;49.410;11.030;2023-05-15T04:32:52;13.27;;;8.82;;
68225;SDS011;55045;49.410;11.030;2023-05-15T04:35:56;14.77;;;9.18;;
68225;SDS011;55045;49.410;11.030;2023-05-15T04:39:00;13.88;;;9.68;;
68225;SDS011;55045;49.410;11.030;2023-05-15T04:42:03;14.90;;;9.85;;
68225;SDS011;55045;49.410;11.030;2023-05-15T04:45:07;16.38;;;10.05;;
68225;SDS011;55045;49.410;11.030;2023-05-15T04:48:11;16.25;;;9.38;;
68225;SDS011;55045;49.410;11.030;2023-05-15T04:51:16;14.00;;;9.20;;
68225;SDS011;55045;49.410;11.030;2023-05-15T04:54:19;15.23;;;10.23;;
68225;SDS011;55045;49.410;11.030;2023-05-15T04:57:22;16.33;;;10.57;;
68225;SDS011;55045;49.410;11.030;2023-05-15T05:00:26;14.73;;;10.00;;
68225;SDS011;55045;49.410;11.030;2023-05-15T05:03:30;16.92;;;9.80;;
68225;SDS011;55045;49.410;11.030;2023-05-15T05:06:35;13.80;;;9.50;;
68225;SDS011;55045;49.410;11.030;2023-05-15T05:09:38;14.77;;;9.50;;
68225;SDS011;55045;49.410;11.030;2023-05-15T05:12:42;16.83;;;10.75;;
68225;SDS011;55045;49.410;11.030;2023-05-15T05:15:45;13.52;;;10.48;;
68225;SDS011;55045;49.410;11.030;2023-05-15T05:18:48;14.88;;;10.43;;
68225;SDS011;55045;49.410;11.030;2023-05-15T05:21:53;16.35;;;12.02;;
68225;SDS011;55045;49.410;11.030;2023-05-15T05:24:56;17.25;;;12.07;;
68225;SDS011;55045;49.410;11.030;2023-05-15T05:28:00;15.43;;;11.60;;
68225;SDS011;55045;49.410;11.030;2023-05-15T05:31:03;17.10;;;11.65;;
68225;SDS011;55045;49.410;11.030;2023-05-15T05:34:06;17.38;;;12.63;;
68225;SDS011;55045;49.410;11.030;2023-05-15T05:37:11;15.18;;;11.35;;
68225;SDS011;55045;49.410;11.030;2023-05-15T05:40:15;18.13;;;12.38;;
68225;SDS011;55045;49.410;11.030;2023-05-15T05:43:18;15.55;;;12.10;;
68225;SDS011;55045;49.410;11.030;2023-05-15T05:46:22;15.35;;;11.68;;
68225;SDS011;55045;49.410;11.030;2023-05-15T05:49:25;20.50;;;11.82;;
68225;SDS011;55045;49.410;11.030;2023-05-15T05:52:30;14.23;;;10.65;;
68225;SDS011;55045;49.410;11.030;2023-05-15T05:55:34;14.48;;;10.75;;
68225;SDS011;55045;49.410;11.030;2023-05-15T05:58:37;14.57;;;9.18;;
68225;SDS011;55045;49.410;11.030;2023-05-15T06:01:40;10.73;;;8.88;;
68225;SDS011;55045;49.410;11.030;2023-05-15T06:04:44;13.98;;;9.52;;
68225;SDS011;55045;49.410;11.030;2023-05-15T06:07:49;12.00;;;8.70;;
68225;SDS011;55045;49.410;11.030;2023-05-15T06:10:52;11.20;;;8.13;;
68225;SDS011;55045;49.410;11.030;2023-05-15T06:13:55;12.35;;;8.80;;
68225;SDS011;55045;49.410;11.030;2023-05-15T06:16:59;11.95;;;8.68;;
68225;SDS011;55045;49.410;11.030;2023-05-15T06:20:03;10.95;;;8.27;;
68225;SDS011;55045;49.410;11.030;2023-05-15T06:23:10;13.48;;;8.38;;
68225;SDS011;55045;49.410;11.030;2023-05-15T06:26:13;12.68;;;8.70;;
68225;SDS011;55045;49.410;11.030;2023-05-15T06:29:16;13.15;;;8.52;;
68225;SDS011;55045;49.410;11.030;2023-05-15T06:32:19;11.10;;;7.93;;
68225;SDS011;55045;49.410;11.030;2023-05-15T06:35:23;11.27;;;8.05;;
68225;SDS011;55045;49.410;11.030;2023-05-15T06:38:27;11.80;;;8.13;;
68225;SDS011;55045;49.410;11.030;2023-05-15T06:41:30;11.55;;;8.32;;
68225;SDS011;55045;49.410;11.030;2023-05-15T06:44:34;11.50;;;8.35;;
68225;SDS011;55045;49.410;11.030;2023-05-15T06:47:37;11.85;;;8.07;;
68225;SDS011;55045;49.410;11.030;2023-05-15T06:50:40;11.60;;;7.68;;
68225;SDS011;55045;49.410;11.030;2023-05-15T06:53:45;9.82;;;8.07;;
68225;SDS011;55045;49.410;11.030;2023-05-15T06:56:48;10.73;;;7.57;;
68225;SDS011;55045;49.410;11.030;2023-05-15T06:59:52;10.43;;;7.95;;
68225;SDS011;55045;49.410;11.030;2023-05-15T07:02:55;10.95;;;7.88;;
68225;SDS011;55045;49.410;11.030;2023-05-15T07:05:58;9.85;;;7.45;;
68225;SDS011;55045;49.410;11.030;2023-05-15T07:09:03;8.73;;;7.20;;
68225;SDS011;55045;49.410;11.030;2023-05-15T07:12:07;11.60;;;8.13;;
68225;SDS011;55045;49.410;11.030;2023-05-15T07:15:10;9.75;;;7.03;;
68225;SDS011;55045;49.410;11.030;2023-05-15T07:18:14;13.25;;;8.23;;
68225;SDS011;55045;49.410;11.030;2023-05-15T07:21:17;8.80;;;7.07;;
68225;SDS011;55045;49.410;11.030;2023-05-15T07:24:22;12.00;;;8.15;;
68225;SDS011;55045;49.410;11.030;2023-05-15T07:27:25;10.60;;;7.53;;
68225;SDS011;55045;49.410;11.030;2023-05-15T07:30:28;9.25;;;7.47;;
68225;SDS011;55045;49.410;11.030;2023-05-15T07:33:32;8.80;;;6.82;;
68225;SDS011;55045;49.410;11.030;2023-05-15T07:36:35;8.93;;;7.32;;
68225;SDS011;55045;49.410;11.030;2023-05-15T07:39:40;8.95;;;6.97;;
68225;SDS011;55045;49.410;11.030;2023-05-15T07:42:43;11.32;;;7.65;;
68225;SDS011;55045;49.410;11.030;2023-05-15T07:45:46;8.70;;;7.38;;
68225;SDS011;55045;49.410;11.030;2023-05-15T07:48:50;8.25;;;6.72;;
68225;SDS011;55045;49.410;11.030;2023-05-15T07:51:53;12.68;;;7.03;;
68225;SDS011;55045;49.410;11.030;2023-05-15T07:54:57;8.77;;;5.82;;
68225;SDS011;55045;49.410;11.030;2023-05-15T07:58:02;11.85;;;6.63;;
68225;SDS011;55045;49.410;11.030;2023-05-15T08:01:05;7.55;;;5.97;;
68225;SDS011;55045;49.410;11.030;2023-05-15T08:04:08;6.82;;;5.70;;
68225;SDS011;55045;49.410;11.030;2023-05-15T08:07:12;7.47;;;5.22;;
68225;SDS011;55045;49.410;11.030;2023-05-15T08:10:17;8.20;;;5.60;;
68225;SDS011;55045;49.410;11.030;2023-05-15T08:13:20;8.50;;;6.50;;
68225;SDS011;55045;49.410;11.030;2023-05-15T08:16:23;9.82;;;6.57;;
68225;SDS011;55045;49.410;11.030;2023-05-15T08:19:27;8.80;;;6.35;;
68225;SDS011;55045;49.410;11.030;2023-05-15T08:22:30;7.35;;;6.55;;
68225;SDS011;55045;49.410;11.030;2023-05-15T08:25:34;12.55;;;5.88;;
68225;SDS011;55045;49.410;11.030;2023-05-15T08:28:38;7.68;;;5.70;;
68225;SDS011;55045;49.410;11.030;2023-05-15T08:31:41;9.40;;;5.38;;
68225;SDS011;55045;49.410;11.030;2023-05-15T08:34:44;6.53;;;5.57;;
68225;SDS011;55045;49.410;11.030;2023-05-15T08:37:47;7.90;;;5.97;;
68225;SDS011;55045;49.410;11.030;2023-05-15T08:40:52;7.00;;;6.30;;
68225;SDS011;55045;49.410;11.030;2023-05-15T08:44:00;6.80;;;5.47;;
68225;SDS011;55045;49.410;11.030;2023-05-15T08:47:05;8.07;;;5.55;;
68225;SDS011;55045;49.410;11.030;2023-05-15T08:50:09;6.53;;;5.50;;
68225;SDS011;55045;49.410;11.030;2023-05-15T08:53:15;5.88;;;5.22;;
68225;SDS011;55045;49.410;11.030;2023-05-15T08:56:20;5.85;;;5.25;;
68225;SDS011;55045;49.410;11.030;2023-05-15T08:59:23;8.00;;;4.82;;
68225;SDS011;55045;49.410;11.030;2023-05-15T09:02:26;8.90;;;5.10;;
68225;SDS011;55045;49.410;11.030;2023-05-15T09:05:30;7.43;;;5.53;;
68225;SDS011;55045;49.410;11.030;2023-05-15T09:08:34;7.47;;;5.10;;
68225;SDS011;55045;49.410;11.030;2023-05-15T09:11:40;5.93;;;5.15;;
68225;SDS011;55045;49.410;11.030;2023-05-15T09:14:46;5.28;;;4.78;;
68225;SDS011;55045;49.410;11.030;2023-05-15T09:17:51;5.68;;;4.30;;
68225;SDS011;55045;49.410;11.030;2023-05-15T09:21:02;5.38;;;4.85;;
68225;SDS011;55045;49.410;11.030;2023-05-15T09:24:26;4.53;;;4.10;;
68225;SDS011;55045;49.410;11.030;2023-05-15T09:27:40;6.25;;;5.45;;
68225;SDS011;55045;49.410;11.030;2023-05-15T09:34:37;5.95;;;4.72;;
68225;SDS011;55045;49.410;11.030;2023-05-15T09:37:42;4.90;;;4.40;;
68225;SDS011;55045;49.410;11.030;2023-05-15T09:40:45;5.05;;;3.88;;
68225;SDS011;55045;49.410;11.030;2023-05-15T09:43:48;7.63;;;4.43;;
68225;SDS011;55045;49.410;11.030;2023-05-15T09:46:52;5.00;;;4.50;;
68225;SDS011;55045;49.410;11.030;2023-05-15T09:49:57;5.60;;;4.47;;
68225;SDS011;55045;49.410;11.030;2023-05-15T09:53:00;8.27;;;4.30;;
68225;SDS011;55045;49.410;11.030;2023-05-15T09:56:04;5.03;;;4.40;;
68225;SDS011;55045;49.410;11.030;2023-05-15T09:59:08;4.53;;;4.10;;
68225;SDS011;55045;49.410;11.030;2023-05-15T10:02:22;5.50;;;4.53;;
68225;SDS011;55045;49.410;11.030;2023-05-15T10:05:30;5.13;;;4.20;;
68225;SDS011;55045;49.410;11.030;2023-05-15T10:08:49;6.50;;;4.20;;
68225;SDS011;55045;49.410;11.030;2023-05-15T10:11:53;4.30;;;3.90;;
68225;SDS011;55045;49.410;11.030;2023-05-15T10:14:56;4.68;;;3.72;;
68225;SDS011;55045;49.410;11.030;2023-05-15T10:18:00;5.18;;;4.57;;
68225;SDS011;55045;49.410;11.030;2023-05-15T10:21:08;6.20;;;3.42;;
68225;SDS011;55045;49.410;11.030;2023-05-15T10:24:11;4.10;;;2.78;;
68225;SDS011;55045;49.410;11.030;2023-05-15T10:27:18;4.25;;;2.70;;
68225;SDS011;55045;49.410;11.030;2023-05-15T10:30:23;4.25;;;2.65;;
68225;SDS011;55045;49.410;11.030;2023-05-15T10:33:27;2.95;;;2.65;;
68225;SDS011;55045;49.410;11.030;2023-05-15T10:36:33;3.08;;;2.78;;
68225;SDS011;55045;49.410;11.030;2023-05-15T10:39:37;4.50;;;2.90;;
68225;SDS011;55045;49.410;11.030;2023-05-15T10:42:42;4.05;;;3.10;;
68225;SDS011;55045;49.410;11.030;2023-05-15T10:45:47;4.28;;;3.88;;
68225;SDS011;55045;49.410;11.030;2023-05-15T10:48:51;5.32;;;3.60;;
68225;SDS011;55045;49.410;11.030;2023-05-15T10:51:55;3.45;;;3.05;;
68225;SDS011;55045;49.410;11.030;2023-05-15T10:55:04;3.47;;;3.17;;
68225;SDS011;55045;49.410;11.030;2023-05-15T10:58:09;4.00;;;3.70;;
68225;SDS011;55045;49.410;11.030;2023-05-15T11:01:25;4.72;;;3.90;;
68225;SDS011;55045;49.410;11.030;2023-05-15T11:04:30;4.10;;;3.70;;
68225;SDS011;55045;49.410;11.030;2023-05-15T11:07:38;4.17;;;3.77;;
68225;SDS011;55045;49.410;11.030;2023-05-15T11:10:42;3.80;;;3.50;;
68225;SDS011;55045;49.410;11.030;2023-05-15T11:17:14;3.60;;;3.17;;
68225;SDS011;55045;49.410;11.030;2023-05-15T11:20:18;4.15;;;3.70;;
68225;SDS011;55045;49.410;11.030;2023-05-15T11:23:23;4.95;;;4.40;;
68225;SDS011;55045;49.410;11.030;2023-05-15T11:26:31;5.57;;;4.38;;
68225;SDS011;55045;49.410;11.030;2023-05-15T11:29:34;5.20;;;4.20;;
68225;SDS011;55045;49.410;11.030;2023-05-15T11:32:41;4.35;;;3.78;;
68225;SDS011;55045;49.410;11.030;2023-05-15T11:35:46;4.32;;;3.92;;
68225;SDS011;55045;49.410;11.030;2023-05-15T11:38:51;5.38;;;4.40;;
68225;SDS011;55045;49.410;11.030;2023-05-15T11:41:54;5.53;;;4.40;;
68225;SDS011;55045;49.410;11.030;2023-05-15T11:45:00;5.95;;;4.97;;
68225;SDS011;55045;49.410;11.030;2023-05-15T11:48:05;7.63;;;4.53;;
68225;SDS011;55045;49.410;11.030;2023-05-15T11:51:14;6.25;;;4.40;;
68225;SDS011;55045;49.410;11.030;2023-05-15T11:54:21;5.82;;;4.93;;
68225;SDS011;55045;49.410;11.030;2023-05-15T11:57:26;6.45;;;4.60;;
68225;SDS011;55045;49.410;11.030;2023-05-15T12:00:30;6.00;;;4.38;;
68225;SDS011;55045;49.410;11.030;2023-05-15T12:03:33;4.95;;;4.47;;
68225;SDS011;55045;49.410;11.030;2023-05-15T12:06:37;4.40;;;4.00;;
68225;SDS011;55045;49.410;11.030;2023-05-15T12:09:42;4.70;;;4.30;;
68225;SDS011;55045;49.410;11.030;2023-05-15T12:12:51;4.68;;;4.20;;
68225;SDS011;55045;49.410;11.030;2023-05-15T12:15:55;4.85;;;4.40;;
68225;SDS011;55045;49.410;11.030;2023-05-15T12:18:58;6.47;;;4.78;;
68225;SDS011;55045;49.410;11.030;2023-05-15T12:22:03;7.07;;;4.65;;
68225;SDS011;55045;49.410;11.030;2023-05-15T12:25:09;12.25;;;4.78;;
68225;SDS011;55045;49.410;11.030;2023-05-15T12:28:12;5.47;;;4.00;;
68225;SDS011;55045;49.410;11.030;2023-05-15T12:31:16;4.32;;;3.88;;
68225;SDS011;55045;49.410;11.030;2023-05-15T12:34:20;5.28;;;4.78;;
68225;SDS011;55045;49.410;11.030;2023-05-15T12:37:23;5.45;;;4.85;;
68225;SDS011;55045;49.410;11.030;2023-05-15T12:40:28;5.20;;;4.70;;
68225;SDS011;55045;49.410;11.030;2023-05-15T12:43:31;5.53;;;4.97;;
68225;SDS011;55045;49.410;11.030;2023-05-15T12:46:34;8.23;;;4.88;;
68225;SDS011;55045;49.410;11.030;2023-05-15T12:49:39;7.53;;;4.55;;
68225;SDS011;55045;49.410;11.030;2023-05-15T12:52:50;6.13;;;4.82;;
68225;SDS011;55045;49.410;11.030;2023-05-15T12:55:55;12.43;;;4.75;;
68225;SDS011;55045;49.410;11.030;2023-05-15T12:58:58;7.15;;;4.70;;
68225;SDS011;55045;49.410;11.030;2023-05-15T13:02:02;6.78;;;4.53;;
68225;SDS011;55045;49.410;11.030;2023-05-15T13:05:06;5.82;;;4.45;;
68225;SDS011;55045;49.410;11.030;2023-05-15T13:08:13;7.25;;;4.40;;
68225;SDS011;55045;49.410;11.030;2023-05-15T13:11:18;5.07;;;4.40;;
68225;SDS011;55045;49.410;11.030;2023-05-15T13:14:23;5.70;;;4.20;;
68225;SDS011;55045;49.410;11.030;2023-05-15T13:17:29;4.47;;;4.03;;
68225;SDS011;55045;49.410;11.030;2023-05-15T13:20:33;4.50;;;3.95;;
68225;SDS011;55045;49.410;11.030;2023-05-15T13:23:40;5.47;;;4.57;;
68225;SDS011;55045;49.410;11.030;2023-05-15T13:26:45;15.02;;;5.22;;
68225;SDS011;55045;49.410;11.030;2023-05-15T13:29:48;8.48;;;4.80;;
68225;SDS011;55045;49.410;11.030;2023-05-15T13:32:52;5.20;;;4.13;;
68225;SDS011;55045;49.410;11.030;2023-05-15T13:35:56;8.63;;;4.72;;
68225;SDS011;55045;49.410;11.030;2023-05-15T13:39:01;9.63;;;4.70;;
68225;SDS011;55045;49.410;11.030;2023-05-15T13:42:06;148.75;;;15.18;;
68225;SDS011;55045;49.410;11.030;2023-05-15T13:45:10;6.45;;;4.78;;
68225;SDS011;55045;49.410;11.030;2023-05-15T13:48:14;4.78;;;4.38;;
68225;SDS011;55045;49.410;11.030;2023-05-15T13:51:17;4.70;;;4.07;;
68225;SDS011;55045;49.410;11.030;2023-05-15T13:54:21;61.55;;;7.97;;
68225;SDS011;55045;49.410;11.030;2023-05-15T13:57:25;20.40;;;6.90;;
68225;SDS011;55045;49.410;11.030;2023-05-15T14:00:29;7.32;;;4.13;;
68225;SDS011;55045;49.410;11.030;2023-05-15T14:03:32;4.88;;;4.35;;
68225;SDS011;55045;49.410;11.030;2023-05-15T14:06:36;4.43;;;3.92;;
68225;SDS011;55045;49.410;11.030;2023-05-15T14:09:39;4.45;;;4.07;;
68225;SDS011;55045;49.410;11.030;2023-05-15T14:12:44;7.75;;;4.88;;
68225;SDS011;55045;49.410;11.030;2023-05-15T14:15:47;8.20;;;4.30;;
68225;SDS011;55045;49.410;11.030;2023-05-15T14:18:51;4.75;;;3.95;;
68225;SDS011;55045;49.410;11.030;2023-05-15T14:21:54;10.95;;;5.05;;
68225;SDS011;55045;49.410;11.030;2023-05-15T14:24:58;11.77;;;5.22;;
68225;SDS011;55045;49.410;11.030;2023-05-15T14:28:02;6.80;;;4.72;;
68225;SDS011;55045;49.410;11.030;2023-05-15T14:31:06;4.80;;;4.40;;
68225;SDS011;55045;49.410;11.030;2023-05-15T14:34:09;5.32;;;4.45;;
68225;SDS011;55045;49.410;11.030;2023-05-15T14:37:12;6.78;;;4.45;;
68225;SDS011;55045;49.410;11.030;2023-05-15T14:40:16;7.35;;;4.82;;
68225;SDS011;55045;49.410;11.030;2023-05-15T14:43:20;5.38;;;4.88;;
68225;SDS011;55045;49.410;11.030;2023-05-15T14:46:25;5.72;;;4.68;;
68225;SDS011;55045;49.410;11.030;2023-05-15T14:49:28;7.82;;;5.00;;
68225;SDS011;55045;49.410;11.030;2023-05-15T14:52:32;9.20;;;4.80;;
68225;SDS011;55045;49.410;11.030;2023-05-15T14:55:35;4.47;;;4.05;;
68225;SDS011;55045;49.410;11.030;2023-05-15T14:58:39;4.82;;;4.07;;
68225;SDS011;55045;49.410;11.030;2023-05-15T15:01:43;6.28;;;4.35;;
68225;SDS011;55045;49.410;11.030;2023-05-15T15:04:47;4.80;;;4.30;;
68225;SDS011;55045;49.410;11.030;2023-05-15T15:07:56;4.88;;;4.47;;
68225;SDS011;55045;49.410;11.030;2023-05-15T15:11:03;6.63;;;4.20;;
68225;SDS011;55045;49.410;11.030;2023-05-15T15:14:10;7.25;;;4.25;;
68225;SDS011;55045;49.410;11.030;2023-05-15T15:17:13;5.95;;;4.47;;
68225;SDS011;55045;49.410;11.030;2023-05-15T15:20:17;7.38;;;4.50;;
68225;SDS011;55045;49.410;11.030;2023-05-15T15:23:21;4.80;;;4.30;;
68225;SDS011;55045;49.410;11.030;2023-05-15T15:26:24;6.88;;;4.47;;
68225;SDS011;55045;49.410;11.030;2023-05-15T15:29:29;4.82;;;4.28;;
68225;SDS011;55045;49.410;11.030;2023-05-15T15:34:36;6.20;;;4.57;;
68225;SDS011;55045;49.410;11.030;2023-05-15T15:37:39;5.25;;;4.80;;
68225;SDS011;55045;49.410;11.030;2023-05-15T15:40:42;6.15;;;4.50;;
68225;SDS011;55045;49.410;11.030;2023-05-15T15:43:45;9.52;;;4.63;;
68225;SDS011;55045;49.410;11.030;2023-05-15T15:46:49;6.47;;;4.85;;
68225;SDS011;55045;49.410;11.030;2023-05-15T15:49:53;6.80;;;4.00;;
68225;SDS011;55045;49.410;11.030;2023-05-15T15:52:57;6.40;;;4.85;;
68225;SDS011;55045;49.410;11.030;2023-05-15T15:56:01;5.82;;;4.60;;
68225;SDS011;55045;49.410;11.030;2023-05-15T15:59:08;10.07;;;5.43;;
68225;SDS011;55045;49.410;11.030;2023-05-15T16:02:11;4.95;;;4.55;;
68225;SDS011;55045;49.410;11.030;2023-05-15T16:05:17;5.60;;;4.90;;
68225;SDS011;55045;49.410;11.030;2023-05-15T16:08:20;8.10;;;5.28;;
68225;SDS011;55045;49.410;11.030;2023-05-15T16:11:23;6.85;;;4.85;;
68225;SDS011;55045;49.410;11.030;2023-05-15T16:14:27;5.82;;;5.20;;
68225;SDS011;55045;49.410;11.030;2023-05-15T16:17:35;6.47;;;5.60;;
68225;SDS011;55045;49.410;11.030;2023-05-15T16:20:40;7.45;;;4.85;;
68225;SDS011;55045;49.410;11.030;2023-05-15T16:23:44;6.45;;;5.05;;
68225;SDS011;55045;49.410;11.030;2023-05-15T16:26:47;7.05;;;5.10;;
68225;SDS011;55045;49.410;11.030;2023-05-15T16:29:51;6.32;;;4.93;;
68225;SDS011;55045;49.410;11.030;2023-05-15T16:32:55;8.95;;;5.38;;
68225;SDS011;55045;49.410;11.030;2023-05-15T16:36:00;5.85;;;4.75;;
68225;SDS011;55045;49.410;11.030;2023-05-15T16:39:05;5.38;;;4.88;;
68225;SDS011;55045;49.410;11.030;2023-05-15T16:42:09;7.57;;;5.20;;
68225;SDS011;55045;49.410;11.030;2023-05-15T16:45:12;7.45;;;5.38;;
68225;SDS011;55045;49.410;11.030;2023-05-15T16:48:15;9.73;;;5.45;;
68225;SDS011;55045;49.410;11.030;2023-05-15T16:51:20;7.88;;;5.10;;
68225;SDS011;55045;49.410;11.030;2023-05-15T16:54:23;8.45;;;5.00;;
68225;SDS011;55045;49.410;11.030;2023-05-15T16:57:26;7.07;;;4.50;;
68225;SDS011;55045;49.410;11.030;2023-05-15T17:00:29;7.15;;;5.13;;
68225;SDS011;55045;49.410;11.030;2023-05-15T17:03:33;5.57;;;5.00;;
68225;SDS011;55045;49.410;11.030;2023-05-15T17:06:38;5.20;;;4.38;;
68225;SDS011;55045;49.410;11.030;2023-05-15T17:09:41;9.45;;;5.28;;
68225;SDS011;55045;49.410;11.030;2023-05-15T17:12:45;4.75;;;4.22;;
68225;SDS011;55045;49.410;11.030;2023-05-15T17:15:48;6.13;;;4.20;;
68225;SDS011;55045;49.410;11.030;2023-05-15T17:18:52;5.50;;;4.30;;
68225;SDS011;55045;49.410;11.030;2023-05-15T17:21:56;6.97;;;3.78;;
68225;SDS011;55045;49.410;11.030;2023-05-15T17:25:00;3.95;;;3.55;;
68225;SDS011;55045;49.410;11.030;2023-05-15T17:28:03;4.70;;;3.45;;
68225;SDS011;55045;49.410;11.030;2023-05-15T17:31:06;11.35;;;3.78;;
68225;SDS011;55045;49.410;11.030;2023-05-15T17:34:10;4.32;;;3.85;;
68225;SDS011;55045;49.410;11.030;2023-05-15T17:37:15;7.53;;;5.00;;
68225;SDS011;55045;49.410;11.030;2023-05-15T17:40:19;5.18;;;3.97;;
68225;SDS011;55045;49.410;11.030;2023-05-15T17:43:22;4.53;;;4.00;;
68225;SDS011;55045;49.410;11.030;2023-05-15T17:46:25;6.35;;;5.55;;
68225;SDS011;55045;49.410;11.030;2023-05-15T17:49:28;7.57;;;6.05;;
68225;SDS011;55045;49.410;11.030;2023-05-15T17:52:33;7.43;;;5.65;;
68225;SDS011;55045;49.410;11.030;2023-05-15T17:55:37;7.57;;;4.82;;
68225;SDS011;55045;49.410;11.030;2023-05-15T17:58:40;6.75;;;5.07;;
68225;SDS011;55045;49.410;11.030;2023-05-15T18:01:43;5.97;;;4.88;;
68225;SDS011;55045;49.410;11.030;2023-05-15T18:04:47;5.93;;;5.20;;
68225;SDS011;55045;49.410;11.030;2023-05-15T18:07:52;8.00;;;5.43;;
68225;SDS011;55045;49.410;11.030;2023-05-15T18:10:57;6.13;;;5.05;;
68225;SDS011;55045;49.410;11.030;2023-05-15T18:14:09;8.48;;;4.90;;
68225;SDS011;55045;49.410;11.030;2023-05-15T18:17:13;4.95;;;4.53;;
68225;SDS011;55045;49.410;11.030;2023-05-15T18:20:16;6.75;;;4.72;;
68225;SDS011;55045;49.410;11.030;2023-05-15T18:23:21;7.75;;;4.70;;
68225;SDS011;55045;49.410;11.030;2023-05-15T18:26:24;4.63;;;4.13;;